sensor_id;sensor_type;location;lat;lon;timestamp;P1;durP1;ratioP1;P2;durP2;ratioP2
8086;SDS011;4086;54.412;9.980;2022-12-29T00:01:25;5.30;;;4.80;;
8086;SDS011;4086;54.412;9.980;2022-12-29T00:03:51;5.43;;;4.93;;
8086;SDS011;4086;54.412;9.980;2022-12-29T00:06:21;5.77;;;5.20;;
8086;SDS011;4086;54.412;9.980;2022-12-29T00:08:47;5.80;;;5.30;;
8086;SDS011;4086;54.412;9.980;2022-12-29T00:11:14;7.40;;;6.07;;
8086;SDS011;4086;54.412;9.980;2022-12-29T00:13:42;6.87;;;6.17;;
8086;SDS011;4086;54.412;9.980;2022-12-29T00:16:26;7.57;;;6.70;;
8086;SDS011;4086;54.412;9.980;2022-12-29T00:18:53;7.90;;;7.10;;
8086;SDS011;4086;54.412;9.980;2022-12-29T00:21:22;8.83;;;7.20;;
8086;SDS011;4086;54.412;9.980;2022-12-29T00:24:09;8.60;;;7.33;;
8086;SDS011;4086;54.412;9.980;2022-12-29T00:26:58;8.77;;;7.47;;
8086;SDS011;4086;54.412;9.980;2022-12-29T00:29:53;12.33;;;7.77;;
8086;SDS011;4086;54.412;9.980;2022-12-29T00:32:37;9.30;;;7.70;;
8086;SDS011;4086;54.412;9.980;2022-12-29T00:35:23;9.93;;;7.63;;
8086;SDS011;4086;54.412;9.980;2022-12-29T00:37:53;10.40;;;7.87;;
8086;SDS011;4086;54.412;9.980;2022-12-29T00:40:39;9.87;;;8.07;;
8086;SDS011;4086;54.412;9.980;2022-12-29T00:43:23;9.10;;;8.20;;
8086;SDS011;4086;54.412;9.980;2022-12-29T00:46:07;9.33;;;8.30;;
8086;SDS011;4086;54.412;9.980;2022-12-29T00:48:33;11.37;;;8.77;;
8086;SDS011;4086;54.412;9.980;2022-12-29T00:51:18;11.70;;;8.40;;
8086;SDS011;4086;54.412;9.980;2022-12-29T00:53:46;10.13;;;8.80;;
8086;SDS011;4086;54.412;9.980;2022-12-29T00:56:12;10.87;;;8.67;;
8086;SDS011;4086;54.412;9.980;2022-12-29T00:58:39;12.77;;;9.23;;
8086;SDS011;4086;54.412;9.980;2022-12-29T01:01:07;10.00;;;8.70;;
8086;SDS011;4086;54.412;9.980;2022-12-29T01:03:34;9.80;;;8.67;;
8086;SDS011;4086;54.412;9.980;2022-12-29T01:06:02;9.80;;;8.47;;
8086;SDS011;4086;54.412;9.980;2022-12-29T01:08:29;11.87;;;9.23;;
8086;SDS011;4086;54.412;9.980;2022-12-29T01:11:01;12.03;;;9.30;;
8086;SDS011;4086;54.412;9.980;2022-12-29T01:13:29;11.17;;;8.90;;
8086;SDS011;4086;54.412;9.980;2022-12-29T01:15:55;11.03;;;9.30;;
8086;SDS011;4086;54.412;9.980;2022-12-29T01:18:22;10.17;;;9.17;;
8086;SDS011;4086;54.412;9.980;2022-12-29T01:20:49;10.67;;;9.20;;
8086;SDS011;4086;54.412;9.980;2022-12-29T01:23:16;10.77;;;9.17;;
8086;SDS011;4086;54.412;9.980;2022-12-29T01:25:43;10.20;;;8.53;;
8086;SDS011;4086;54.412;9.980;2022-12-29T01:28:11;11.40;;;9.30;;
8086;SDS011;4086;54.412;9.980;2022-12-29T01:30:37;12.57;;;9.37;;
8086;SDS011;4086;54.412;9.980;2022-12-29T01:33:04;10.60;;;9.50;;
8086;SDS011;4086;54.412;9.980;2022-12-29T01:35:30;11.00;;;9.87;;
8086;SDS011;4086;54.412;9.980;2022-12-29T01:37:57;12.93;;;9.80;;
8086;SDS011;4086;54.412;9.980;2022-12-29T01:40:23;11.37;;;9.87;;
8086;SDS011;4086;54.412;9.980;2022-12-29T01:42:50;12.10;;;9.83;;
8086;SDS011;4086;54.412;9.980;2022-12-29T01:45:18;12.27;;;9.93;;
8086;SDS011;4086;54.412;9.980;2022-12-29T01:47:45;12.27;;;9.87;;
8086;SDS011;4086;54.412;9.980;2022-12-29T01:50:14;13.37;;;10.57;;
8086;SDS011;4086;54.412;9.980;2022-12-29T01:52:46;13.63;;;10.33;;
8086;SDS011;4086;54.412;9.980;2022-12-29T01:55:17;13.23;;;10.80;;
8086;SDS011;4086;54.412;9.980;2022-12-29T01:57:45;12.60;;;10.27;;
8086;SDS011;4086;54.412;9.980;2022-12-29T02:00:13;13.30;;;10.50;;
8086;SDS011;4086;54.412;9.980;2022-12-29T02:02:42;12.30;;;10.43;;
8086;SDS011;4086;54.412;9.980;2022-12-29T02:05:11;13.43;;;11.13;;
8086;SDS011;4086;54.412;9.980;2022-12-29T02:07:40;12.77;;;10.70;;
8086;SDS011;4086;54.412;9.980;2022-12-29T02:10:07;12.23;;;10.93;;
8086;SDS011;4086;54.412;9.980;2022-12-29T02:12:34;12.83;;;11.00;;
8086;SDS011;4086;54.412;9.980;2022-12-29T02:15:00;13.97;;;10.20;;
8086;SDS011;4086;54.412;9.980;2022-12-29T02:17:32;12.53;;;10.90;;
8086;SDS011;4086;54.412;9.980;2022-12-29T02:23:13;14.87;;;10.97;;
8086;SDS011;4086;54.412;9.980;2022-12-29T02:25:58;13.33;;;11.10;;
8086;SDS011;4086;54.412;9.980;2022-12-29T02:28:52;11.83;;;10.33;;
8086;SDS011;4086;54.412;9.980;2022-12-29T02:31:27;14.77;;;11.60;;
8086;SDS011;4086;54.412;9.980;2022-12-29T02:33:58;13.20;;;11.00;;
8086;SDS011;4086;54.412;9.980;2022-12-29T02:36:29;15.43;;;11.80;;
8086;SDS011;4086;54.412;9.980;2022-12-29T02:39:04;14.23;;;11.10;;
8086;SDS011;4086;54.412;9.980;2022-12-29T02:41:34;14.43;;;11.80;;
8086;SDS011;4086;54.412;9.980;2022-12-29T02:44:07;14.27;;;11.87;;
8086;SDS011;4086;54.412;9.980;2022-12-29T02:46:41;14.10;;;11.60;;
8086;SDS011;4086;54.412;9.980;2022-12-29T02:49:11;13.83;;;11.73;;
8086;SDS011;4086;54.412;9.980;2022-12-29T02:51:44;13.10;;;10.90;;
8086;SDS011;4086;54.412;9.980;2022-12-29T02:54:16;14.27;;;11.97;;
8086;SDS011;4086;54.412;9.980;2022-12-29T02:57:00;14.27;;;11.80;;
8086;SDS011;4086;54.412;9.980;2022-12-29T02:59:26;14.43;;;11.93;;
8086;SDS011;4086;54.412;9.980;2022-12-29T03:02:02;13.57;;;11.17;;
8086;SDS011;4086;54.412;9.980;2022-12-29T03:04:49;14.87;;;11.70;;
8086;SDS011;4086;54.412;9.980;2022-12-29T03:07:22;13.27;;;11.33;;
8086;SDS011;4086;54.412;9.980;2022-12-29T03:09:52;14.83;;;11.90;;
8086;SDS011;4086;54.412;9.980;2022-12-29T03:12:24;15.30;;;11.73;;
8086;SDS011;4086;54.412;9.980;2022-12-29T03:15:15;14.47;;;11.17;;
8086;SDS011;4086;54.412;9.980;2022-12-29T03:18:04;16.23;;;12.07;;
8086;SDS011;4086;54.412;9.980;2022-12-29T03:20:35;16.50;;;11.60;;
8086;SDS011;4086;54.412;9.980;2022-12-29T03:23:05;13.87;;;11.67;;
8086;SDS011;4086;54.412;9.980;2022-12-29T03:25:31;16.33;;;12.20;;
8086;SDS011;4086;54.412;9.980;2022-12-29T03:28:01;15.07;;;11.33;;
8086;SDS011;4086;54.412;9.980;2022-12-29T03:30:29;13.67;;;11.03;;
8086;SDS011;4086;54.412;9.980;2022-12-29T03:32:59;14.50;;;12.07;;
8086;SDS011;4086;54.412;9.980;2022-12-29T03:35:29;14.73;;;11.37;;
8086;SDS011;4086;54.412;9.980;2022-12-29T03:37:58;13.10;;;11.07;;
8086;SDS011;4086;54.412;9.980;2022-12-29T03:40:27;17.23;;;11.90;;
8086;SDS011;4086;54.412;9.980;2022-12-29T03:42:54;13.57;;;10.90;;
8086;SDS011;4086;54.412;9.980;2022-12-29T03:45:21;15.37;;;11.20;;
8086;SDS011;4086;54.412;9.980;2022-12-29T03:47:47;14.87;;;11.97;;
8086;SDS011;4086;54.412;9.980;2022-12-29T03:50:13;13.60;;;11.27;;
8086;SDS011;4086;54.412;9.980;2022-12-29T03:52:42;14.87;;;11.47;;
8086;SDS011;4086;54.412;9.980;2022-12-29T03:55:08;15.27;;;12.60;;
8086;SDS011;4086;54.412;9.980;2022-12-29T03:57:35;15.17;;;11.80;;
8086;SDS011;4086;54.412;9.980;2022-12-29T04:00:02;14.27;;;12.27;;
8086;SDS011;4086;54.412;9.980;2022-12-29T04:02:30;17.47;;;11.20;;
8086;SDS011;4086;54.412;9.980;2022-12-29T04:04:56;13.63;;;12.13;;
8086;SDS011;4086;54.412;9.980;2022-12-29T04:07:23;14.80;;;11.60;;
8086;SDS011;4086;54.412;9.980;2022-12-29T04:09:50;12.50;;;11.20;;
8086;SDS011;4086;54.412;9.980;2022-12-29T04:12:17;13.47;;;11.27;;
8086;SDS011;4086;54.412;9.980;2022-12-29T04:14:43;13.23;;;10.63;;
8086;SDS011;4086;54.412;9.980;2022-12-29T04:17:10;13.90;;;11.00;;
8086;SDS011;4086;54.412;9.980;2022-12-29T04:19:36;13.33;;;10.93;;
8086;SDS011;4086;54.412;9.980;2022-12-29T04:22:03;13.00;;;11.63;;
8086;SDS011;4086;54.412;9.980;2022-12-29T04:24:29;13.00;;;11.13;;
8086;SDS011;4086;54.412;9.980;2022-12-29T04:26:57;13.43;;;11.60;;
8086;SDS011;4086;54.412;9.980;2022-12-29T04:29:24;12.80;;;11.07;;
8086;SDS011;4086;54.412;9.980;2022-12-29T04:31:50;13.17;;;11.73;;
8086;SDS011;4086;54.412;9.980;2022-12-29T04:34:17;13.30;;;11.40;;
8086;SDS011;4086;54.412;9.980;2022-12-29T04:36:43;13.37;;;10.87;;
8086;SDS011;4086;54.412;9.980;2022-12-29T04:39:10;13.07;;;10.63;;
8086;SDS011;4086;54.412;9.980;2022-12-29T04:41:36;13.63;;;11.20;;
8086;SDS011;4086;54.412;9.980;2022-12-29T04:44:05;11.77;;;10.57;;
8086;SDS011;4086;54.412;9.980;2022-12-29T04:46:31;11.43;;;10.23;;
8086;SDS011;4086;54.412;9.980;2022-12-29T04:48:58;11.83;;;10.17;;
8086;SDS011;4086;54.412;9.980;2022-12-29T04:51:25;11.30;;;10.10;;
8086;SDS011;4086;54.412;9.980;2022-12-29T04:53:52;10.87;;;9.73;;
8086;SDS011;4086;54.412;9.980;2022-12-29T04:56:18;12.27;;;10.27;;
8086;SDS011;4086;54.412;9.980;2022-12-29T04:58:45;11.50;;;9.97;;
8086;SDS011;4086;54.412;9.980;2022-12-29T05:01:13;12.60;;;10.10;;
8086;SDS011;4086;54.412;9.980;2022-12-29T05:03:39;11.83;;;10.53;;
8086;SDS011;4086;54.412;9.980;2022-12-29T05:06:06;11.43;;;10.10;;
8086;SDS011;4086;54.412;9.980;2022-12-29T05:08:33;10.57;;;9.47;;
8086;SDS011;4086;54.412;9.980;2022-12-29T05:10:59;11.30;;;9.90;;
8086;SDS011;4086;54.412;9.980;2022-12-29T05:13:26;11.63;;;9.97;;
8086;SDS011;4086;54.412;9.980;2022-12-29T05:15:52;12.93;;;10.60;;
8086;SDS011;4086;54.412;9.980;2022-12-29T05:18:21;10.83;;;9.73;;
8086;SDS011;4086;54.412;9.980;2022-12-29T05:20:47;10.57;;;9.47;;
8086;SDS011;4086;54.412;9.980;2022-12-29T05:23:14;12.53;;;10.10;;
8086;SDS011;4086;54.412;9.980;2022-12-29T05:25:41;11.50;;;9.50;;
8086;SDS011;4086;54.412;9.980;2022-12-29T05:28:07;11.87;;;9.97;;
8086;SDS011;4086;54.412;9.980;2022-12-29T05:30:34;14.27;;;9.90;;
8086;SDS011;4086;54.412;9.980;2022-12-29T05:33:00;12.27;;;9.93;;
8086;SDS011;4086;54.412;9.980;2022-12-29T05:35:28;12.00;;;10.37;;
8086;SDS011;4086;54.412;9.980;2022-12-29T05:37:54;12.87;;;9.27;;
8086;SDS011;4086;54.412;9.980;2022-12-29T05:40:21;11.47;;;9.80;;
8086;SDS011;4086;54.412;9.980;2022-12-29T05:42:48;10.80;;;9.17;;
8086;SDS011;4086;54.412;9.980;2022-12-29T05:45:14;11.90;;;9.57;;
8086;SDS011;4086;54.412;9.980;2022-12-29T05:47:41;12.37;;;9.80;;
8086;SDS011;4086;54.412;9.980;2022-12-29T05:50:07;10.23;;;9.23;;
8086;SDS011;4086;54.412;9.980;2022-12-29T05:52:36;11.13;;;9.87;;
8086;SDS011;4086;54.412;9.980;2022-12-29T05:55:02;9.47;;;8.43;;
8086;SDS011;4086;54.412;9.980;2022-12-29T05:57:30;10.47;;;9.00;;
8086;SDS011;4086;54.412;9.980;2022-12-29T05:59:57;9.00;;;8.10;;
8086;SDS011;4086;54.412;9.980;2022-12-29T06:02:23;8.37;;;7.13;;
8086;SDS011;4086;54.412;9.980;2022-12-29T06:04:50;7.83;;;7.13;;
8086;SDS011;4086;54.412;9.980;2022-12-29T06:07:16;8.33;;;6.83;;
8086;SDS011;4086;54.412;9.980;2022-12-29T06:09:44;8.63;;;6.77;;
8086;SDS011;4086;54.412;9.980;2022-12-29T06:12:11;7.73;;;6.77;;
8086;SDS011;4086;54.412;9.980;2022-12-29T06:14:38;7.30;;;6.43;;
8086;SDS011;4086;54.412;9.980;2022-12-29T06:17:05;7.17;;;6.40;;
8086;SDS011;4086;54.412;9.980;2022-12-29T06:19:31;7.30;;;6.10;;
8086;SDS011;4086;54.412;9.980;2022-12-29T06:21:58;6.47;;;5.87;;
8086;SDS011;4086;54.412;9.980;2022-12-29T06:24:25;6.60;;;6.00;;
8086;SDS011;4086;54.412;9.980;2022-12-29T06:26:52;6.13;;;5.57;;
8086;SDS011;4086;54.412;9.980;2022-12-29T06:29:19;5.60;;;5.10;;
8086;SDS011;4086;54.412;9.980;2022-12-29T06:31:45;5.50;;;5.00;;
8086;SDS011;4086;54.412;9.980;2022-12-29T06:34:11;5.17;;;4.70;;
8086;SDS011;4086;54.412;9.980;2022-12-29T06:36:38;5.43;;;4.90;;
8086;SDS011;4086;54.412;9.980;2022-12-29T06:39:05;5.87;;;5.30;;
8086;SDS011;4086;54.412;9.980;2022-12-29T06:41:31;5.77;;;5.27;;
8086;SDS011;4086;54.412;9.980;2022-12-29T06:43:59;7.93;;;5.30;;
8086;SDS011;4086;54.412;9.980;2022-12-29T06:46:26;4.67;;;4.27;;
8086;SDS011;4086;54.412;9.980;2022-12-29T06:48:52;5.03;;;4.57;;
8086;SDS011;4086;54.412;9.980;2022-12-29T06:51:19;4.80;;;4.40;;
8086;SDS011;4086;54.412;9.980;2022-12-29T06:53:45;4.97;;;4.57;;
8086;SDS011;4086;54.412;9.980;2022-12-29T06:56:12;4.90;;;4.50;;
8086;SDS011;4086;54.412;9.980;2022-12-29T06:58:38;4.93;;;4.43;;
8086;SDS011;4086;54.412;9.980;2022-12-29T07:01:06;4.47;;;4.10;;
8086;SDS011;4086;54.412;9.980;2022-12-29T07:03:32;4.47;;;4.07;;
8086;SDS011;4086;54.412;9.980;2022-12-29T07:05:59;5.77;;;4.30;;
8086;SDS011;4086;54.412;9.980;2022-12-29T07:08:25;4.60;;;4.20;;
8086;SDS011;4086;54.412;9.980;2022-12-29T07:10:52;4.97;;;4.00;;
8086;SDS011;4086;54.412;9.980;2022-12-29T07:13:18;4.37;;;3.97;;
8086;SDS011;4086;54.412;9.980;2022-12-29T07:15:45;4.53;;;4.13;;
8086;SDS011;4086;54.412;9.980;2022-12-29T07:18:13;4.00;;;3.60;;
8086;SDS011;4086;54.412;9.980;2022-12-29T07:20:39;4.13;;;3.80;;
8086;SDS011;4086;54.412;9.980;2022-12-29T07:23:07;3.83;;;3.53;;
8086;SDS011;4086;54.412;9.980;2022-12-29T07:25:33;4.57;;;3.87;;
8086;SDS011;4086;54.412;9.980;2022-12-29T07:28:01;4.40;;;3.60;;
8086;SDS011;4086;54.412;9.980;2022-12-29T07:30:27;3.53;;;3.27;;
8086;SDS011;4086;54.412;9.980;2022-12-29T07:32:54;3.87;;;3.13;;
8086;SDS011;4086;54.412;9.980;2022-12-29T07:35:22;3.53;;;3.20;;
8086;SDS011;4086;54.412;9.980;2022-12-29T07:37:49;3.73;;;3.17;;
8086;SDS011;4086;54.412;9.980;2022-12-29T07:40:15;3.30;;;3.00;;
8086;SDS011;4086;54.412;9.980;2022-12-29T07:42:42;3.43;;;2.80;;
8086;SDS011;4086;54.412;9.980;2022-12-29T07:45:08;5.40;;;3.13;;
8086;SDS011;4086;54.412;9.980;2022-12-29T07:47:36;2.87;;;2.57;;
8086;SDS011;4086;54.412;9.980;2022-12-29T07:50:03;3.33;;;2.40;;
8086;SDS011;4086;54.412;9.980;2022-12-29T07:52:32;3.83;;;2.30;;
8086;SDS011;4086;54.412;9.980;2022-12-29T07:54:59;2.43;;;2.20;;
8086;SDS011;4086;54.412;9.980;2022-12-29T07:57:25;2.53;;;1.93;;
8086;SDS011;4086;54.412;9.980;2022-12-29T07:59:52;4.97;;;2.47;;
8086;SDS011;4086;54.412;9.980;2022-12-29T08:02:18;3.90;;;2.00;;
8086;SDS011;4086;54.412;9.980;2022-12-29T08:04:45;3.93;;;1.90;;
8086;SDS011;4086;54.412;9.980;2022-12-29T08:07:11;2.93;;;1.50;;
8086;SDS011;4086;54.412;9.980;2022-12-29T08:09:39;2.17;;;1.40;;
8086;SDS011;4086;54.412;9.980;2022-12-29T08:12:07;3.97;;;1.30;;
8086;SDS011;4086;54.412;9.980;2022-12-29T08:14:35;1.67;;;1.40;;
8086;SDS011;4086;54.412;9.980;2022-12-29T08:17:01;2.77;;;1.20;;
8086;SDS011;4086;54.412;9.980;2022-12-29T08:19:28;1.93;;;1.30;;
8086;SDS011;4086;54.412;9.980;2022-12-29T08:21:54;4.50;;;1.50;;
8086;SDS011;4086;54.412;9.980;2022-12-29T08:24:21;1.50;;;1.40;;
8086;SDS011;4086;54.412;9.980;2022-12-29T08:26:49;2.53;;;1.20;;
8086;SDS011;4086;54.412;9.980;2022-12-29T08:29:15;4.30;;;1.33;;
8086;SDS011;4086;54.412;9.980;2022-12-29T08:31:42;4.33;;;1.50;;
8086;SDS011;4086;54.412;9.980;2022-12-29T08:34:08;3.93;;;1.50;;
8086;SDS011;4086;54.412;9.980;2022-12-29T08:36:35;3.97;;;1.50;;
8086;SDS011;4086;54.412;9.980;2022-12-29T08:39:01;5.07;;;1.67;;
8086;SDS011;4086;54.412;9.980;2022-12-29T08:41:28;6.07;;;1.93;;
8086;SDS011;4086;54.412;9.980;2022-12-29T08:43:56;4.30;;;1.57;;
8086;SDS011;4086;54.412;9.980;2022-12-29T08:46:22;3.07;;;1.43;;
8086;SDS011;4086;54.412;9.980;2022-12-29T08:48:49;3.07;;;1.23;;
8086;SDS011;4086;54.412;9.980;2022-12-29T08:51:16;2.70;;;1.60;;
8086;SDS011;4086;54.412;9.980;2022-12-29T08:53:43;3.17;;;1.17;;
8086;SDS011;4086;54.412;9.980;2022-12-29T08:56:09;2.97;;;1.53;;
8086;SDS011;4086;54.412;9.980;2022-12-29T08:58:36;2.87;;;1.57;;
8086;SDS011;4086;54.412;9.980;2022-12-29T09:01:05;4.57;;;1.73;;
8086;SDS011;4086;54.412;9.980;2022-12-29T09:03:32;4.50;;;1.70;;
8086;SDS011;4086;54.412;9.980;2022-12-29T09:05:59;1.50;;;1.27;;
8086;SDS011;4086;54.412;9.980;2022-12-29T09:08:25;3.77;;;1.37;;
8086;SDS011;4086;54.412;9.980;2022-12-29T09:10:52;4.00;;;1.30;;
8086;SDS011;4086;54.412;9.980;2022-12-29T09:13:18;3.87;;;1.60;;
8086;SDS011;4086;54.412;9.980;2022-12-29T09:15:45;4.93;;;1.73;;
8086;SDS011;4086;54.412;9.980;2022-12-29T09:18:13;4.40;;;1.20;;
8086;SDS011;4086;54.412;9.980;2022-12-29T09:20:40;3.67;;;1.20;;
8086;SDS011;4086;54.412;9.980;2022-12-29T09:23:06;4.33;;;1.53;;
8086;SDS011;4086;54.412;9.980;2022-12-29T09:25:33;2.23;;;1.13;;
8086;SDS011;4086;54.412;9.980;2022-12-29T09:27:59;4.37;;;1.40;;
8086;SDS011;4086;54.412;9.980;2022-12-29T09:30:29;2.37;;;1.30;;
8086;SDS011;4086;54.412;9.980;2022-12-29T09:32:55;2.17;;;1.20;;
8086;SDS011;4086;54.412;9.980;2022-12-29T09:35:23;3.73;;;1.40;;
8086;SDS011;4086;54.412;9.980;2022-12-29T09:37:50;2.73;;;1.40;;
8086;SDS011;4086;54.412;9.980;2022-12-29T09:40:21;3.73;;;1.40;;
8086;SDS011;4086;54.412;9.980;2022-12-29T09:42:55;4.37;;;1.20;;
8086;SDS011;4086;54.412;9.980;2022-12-29T09:45:43;3.83;;;1.33;;
8086;SDS011;4086;54.412;9.980;2022-12-29T09:48:13;4.80;;;1.40;;
8086;SDS011;4086;54.412;9.980;2022-12-29T09:50:43;3.83;;;1.10;;
8086;SDS011;4086;54.412;9.980;2022-12-29T09:53:13;3.57;;;1.30;;
8086;SDS011;4086;54.412;9.980;2022-12-29T09:55:45;5.27;;;1.07;;
8086;SDS011;4086;54.412;9.980;2022-12-29T09:58:13;5.40;;;1.40;;
8086;SDS011;4086;54.412;9.980;2022-12-29T10:00:47;3.50;;;1.30;;
8086;SDS011;4086;54.412;9.980;2022-12-29T10:03:15;2.63;;;1.43;;
8086;SDS011;4086;54.412;9.980;2022-12-29T10:05:45;4.60;;;1.10;;
8086;SDS011;4086;54.412;9.980;2022-12-29T10:08:18;4.73;;;1.60;;
8086;SDS011;4086;54.412;9.980;2022-12-29T10:10:52;2.83;;;1.23;;
8086;SDS011;4086;54.412;9.980;2022-12-29T10:13:24;8.47;;;1.43;;
8086;SDS011;4086;54.412;9.980;2022-12-29T10:15:57;3.57;;;1.40;;
8086;SDS011;4086;54.412;9.980;2022-12-29T10:18:39;6.43;;;1.60;;
8086;SDS011;4086;54.412;9.980;2022-12-29T10:21:33;3.60;;;1.37;;
8086;SDS011;4086;54.412;9.980;2022-12-29T10:24:06;4.27;;;1.20;;
8086;SDS011;4086;54.412;9.980;2022-12-29T10:26:36;3.77;;;0.83;;
8086;SDS011;4086;54.412;9.980;2022-12-29T10:29:04;5.80;;;2.27;;
8086;SDS011;4086;54.412;9.980;2022-12-29T10:31:33;5.73;;;1.70;;
8086;SDS011;4086;54.412;9.980;2022-12-29T10:34:05;2.77;;;1.37;;
8086;SDS011;4086;54.412;9.980;2022-12-29T10:36:39;1.90;;;1.20;;
8086;SDS011;4086;54.412;9.980;2022-12-29T10:39:11;3.23;;;1.23;;
8086;SDS011;4086;54.412;9.980;2022-12-29T10:41:44;6.17;;;1.50;;
8086;SDS011;4086;54.412;9.980;2022-12-29T10:44:13;3.63;;;1.53;;
8086;SDS011;4086;54.412;9.980;2022-12-29T10:46:41;3.90;;;1.60;;
8086;SDS011;4086;54.412;9.980;2022-12-29T10:49:12;4.97;;;1.30;;
8086;SDS011;4086;54.412;9.980;2022-12-29T10:51:45;3.67;;;1.30;;
8086;SDS011;4086;54.412;9.980;2022-12-29T10:54:14;4.33;;;1.10;;
8086;SDS011;4086;54.412;9.980;2022-12-29T10:56:44;3.97;;;1.40;;
8086;SDS011;4086;54.412;9.980;2022-12-29T10:59:15;3.87;;;1.17;;
8086;SDS011;4086;54.412;9.980;2022-12-29T11:01:46;3.13;;;1.20;;
8086;SDS011;4086;54.412;9.980;2022-12-29T11:04:28;5.57;;;1.90;;
8086;SDS011;4086;54.412;9.980;2022-12-29T11:07:01;4.87;;;1.30;;
8086;SDS011;4086;54.412;9.980;2022-12-29T11:09:28;2.27;;;1.10;;
8086;SDS011;4086;54.412;9.980;2022-12-29T11:11:55;3.83;;;1.40;;
8086;SDS011;4086;54.412;9.980;2022-12-29T11:14:26;4.80;;;1.03;;
8086;SDS011;4086;54.412;9.980;2022-12-29T11:16:56;5.47;;;1.27;;
8086;SDS011;4086;54.412;9.980;2022-12-29T11:19:26;3.20;;;1.20;;
8086;SDS011;4086;54.412;9.980;2022-12-29T11:21:53;5.27;;;1.20;;
8086;SDS011;4086;54.412;9.980;2022-12-29T11:24:23;3.53;;;1.20;;
8086;SDS011;4086;54.412;9.980;2022-12-29T11:26:50;6.53;;;1.80;;
8086;SDS011;4086;54.412;9.980;2022-12-29T11:29:26;3.77;;;1.10;;
8086;SDS011;4086;54.412;9.980;2022-12-29T11:31:54;5.40;;;1.10;;
8086;SDS011;4086;54.412;9.980;2022-12-29T11:34:23;4.33;;;1.50;;
8086;SDS011;4086;54.412;9.980;2022-12-29T11:36:52;4.23;;;1.30;;
8086;SDS011;4086;54.412;9.980;2022-12-29T11:39:29;4.33;;;1.40;;
8086;SDS011;4086;54.412;9.980;2022-12-29T11:41:58;2.93;;;1.60;;
8086;SDS011;4086;54.412;9.980;2022-12-29T11:44:25;6.63;;;1.40;;
8086;SDS011;4086;54.412;9.980;2022-12-29T11:46:52;2.87;;;1.00;;
8086;SDS011;4086;54.412;9.980;2022-12-29T11:49:20;7.20;;;1.93;;
8086;SDS011;4086;54.412;9.980;2022-12-29T11:51:49;4.40;;;1.40;;
8086;SDS011;4086;54.412;9.980;2022-12-29T11:54:18;5.83;;;1.57;;
8086;SDS011;4086;54.412;9.980;2022-12-29T11:56:47;2.47;;;1.47;;
8086;SDS011;4086;54.412;9.980;2022-12-29T11:59:29;7.27;;;1.50;;
8086;SDS011;4086;54.412;9.980;2022-12-29T12:02:03;9.33;;;2.63;;
8086;SDS011;4086;54.412;9.980;2022-12-29T12:04:39;6.00;;;1.70;;
8086;SDS011;4086;54.412;9.980;2022-12-29T12:07:10;4.80;;;1.80;;
8086;SDS011;4086;54.412;9.980;2022-12-29T12:09:40;5.93;;;1.60;;
8086;SDS011;4086;54.412;9.980;2022-12-29T12:12:15;9.10;;;2.00;;
8086;SDS011;4086;54.412;9.980;2022-12-29T12:14:50;7.57;;;1.87;;
8086;SDS011;4086;54.412;9.980;2022-12-29T12:17:22;7.93;;;1.73;;
8086;SDS011;4086;54.412;9.980;2022-12-29T12:20:03;5.20;;;1.90;;
8086;SDS011;4086;54.412;9.980;2022-12-29T12:22:34;5.13;;;1.70;;
8086;SDS011;4086;54.412;9.980;2022-12-29T12:25:03;3.73;;;1.43;;
8086;SDS011;4086;54.412;9.980;2022-12-29T12:27:36;5.47;;;1.83;;
8086;SDS011;4086;54.412;9.980;2022-12-29T12:30:14;4.87;;;1.80;;
8086;SDS011;4086;54.412;9.980;2022-12-29T12:32:55;7.27;;;1.97;;
8086;SDS011;4086;54.412;9.980;2022-12-29T12:35:24;6.73;;;2.30;;
8086;SDS011;4086;54.412;9.980;2022-12-29T12:38:02;3.97;;;1.73;;
8086;SDS011;4086;54.412;9.980;2022-12-29T12:40:53;4.37;;;2.13;;
8086;SDS011;4086;54.412;9.980;2022-12-29T12:43:36;7.07;;;1.77;;
8086;SDS011;4086;54.412;9.980;2022-12-29T12:46:10;2.23;;;1.33;;
8086;SDS011;4086;54.412;9.980;2022-12-29T12:49:04;5.70;;;1.87;;
8086;SDS011;4086;54.412;9.980;2022-12-29T12:51:45;9.63;;;1.80;;
8086;SDS011;4086;54.412;9.980;2022-12-29T12:54:18;10.27;;;2.43;;
8086;SDS011;4086;54.412;9.980;2022-12-29T12:56:53;7.77;;;1.63;;
8086;SDS011;4086;54.412;9.980;2022-12-29T12:59:32;4.93;;;2.07;;
8086;SDS011;4086;54.412;9.980;2022-12-29T13:02:08;3.73;;;1.90;;
8086;SDS011;4086;54.412;9.980;2022-12-29T13:04:52;2.93;;;1.87;;
8086;SDS011;4086;54.412;9.980;2022-12-29T13:07:28;3.50;;;1.60;;
8086;SDS011;4086;54.412;9.980;2022-12-29T13:10:12;5.40;;;1.90;;
8086;SDS011;4086;54.412;9.980;2022-12-29T13:12:48;10.37;;;1.90;;
8086;SDS011;4086;54.412;9.980;2022-12-29T13:15:23;4.93;;;1.73;;
8086;SDS011;4086;54.412;9.980;2022-12-29T13:18:02;4.97;;;1.63;;
8086;SDS011;4086;54.412;9.980;2022-12-29T13:20:35;3.13;;;1.63;;
8086;SDS011;4086;54.412;9.980;2022-12-29T13:23:08;3.67;;;1.90;;
8086;SDS011;4086;54.412;9.980;2022-12-29T13:25:41;6.40;;;1.60;;
8086;SDS011;4086;54.412;9.980;2022-12-29T13:28:10;4.73;;;2.13;;
8086;SDS011;4086;54.412;9.980;2022-12-29T13:30:44;2.80;;;1.50;;
8086;SDS011;4086;54.412;9.980;2022-12-29T13:33:15;4.00;;;1.47;;
8086;SDS011;4086;54.412;9.980;2022-12-29T13:35:49;5.13;;;1.73;;
8086;SDS011;4086;54.412;9.980;2022-12-29T13:38:21;4.77;;;1.47;;
8086;SDS011;4086;54.412;9.980;2022-12-29T13:40:50;6.50;;;1.77;;
8086;SDS011;4086;54.412;9.980;2022-12-29T13:43:19;6.43;;;1.70;;
8086;SDS011;4086;54.412;9.980;2022-12-29T13:45:48;9.27;;;2.43;;
8086;SDS011;4086;54.412;9.980;2022-12-29T13:48:18;6.37;;;2.20;;
8086;SDS011;4086;54.412;9.980;2022-12-29T13:50:51;7.70;;;2.07;;
8086;SDS011;4086;54.412;9.980;2022-12-29T13:53:23;5.73;;;2.33;;
8086;SDS011;4086;54.412;9.980;2022-12-29T13:55:56;12.03;;;2.10;;
8086;SDS011;4086;54.412;9.980;2022-12-29T13:58:26;13.07;;;1.93;;
8086;SDS011;4086;54.412;9.980;2022-12-29T14:00:57;5.40;;;2.60;;
8086;SDS011;4086;54.412;9.980;2022-12-29T14:03:41;7.90;;;2.33;;
8086;SDS011;4086;54.412;9.980;2022-12-29T14:06:15;9.73;;;3.00;;
8086;SDS011;4086;54.412;9.980;2022-12-29T14:08:45;8.10;;;2.20;;
8086;SDS011;4086;54.412;9.980;2022-12-29T14:11:13;14.33;;;2.67;;
8086;SDS011;4086;54.412;9.980;2022-12-29T14:13:41;9.40;;;1.77;;
8086;SDS011;4086;54.412;9.980;2022-12-29T14:16:21;8.43;;;2.50;;
8086;SDS011;4086;54.412;9.980;2022-12-29T14:18:54;7.23;;;2.80;;
8086;SDS011;4086;54.412;9.980;2022-12-29T14:21:23;12.07;;;2.40;;
8086;SDS011;4086;54.412;9.980;2022-12-29T14:23:53;6.17;;;2.23;;
8086;SDS011;4086;54.412;9.980;2022-12-29T14:26:32;6.93;;;2.10;;
8086;SDS011;4086;54.412;9.980;2022-12-29T14:29:22;8.83;;;1.90;;
8086;SDS011;4086;54.412;9.980;2022-12-29T14:38:16;7.50;;;2.27;;
8086;SDS011;4086;54.412;9.980;2022-12-29T14:40:45;14.07;;;2.77;;
8086;SDS011;4086;54.412;9.980;2022-12-29T14:43:12;16.10;;;3.30;;
8086;SDS011;4086;54.412;9.980;2022-12-29T14:45:42;14.10;;;2.87;;
8086;SDS011;4086;54.412;9.980;2022-12-29T14:51:16;10.17;;;2.37;;
8086;SDS011;4086;54.412;9.980;2022-12-29T14:53:47;12.03;;;2.57;;
8086;SDS011;4086;54.412;9.980;2022-12-29T14:56:15;8.80;;;2.23;;
8086;SDS011;4086;54.412;9.980;2022-12-29T14:58:51;8.87;;;2.70;;
8086;SDS011;4086;54.412;9.980;2022-12-29T15:01:22;9.93;;;2.53;;
8086;SDS011;4086;54.412;9.980;2022-12-29T15:04:03;10.33;;;2.00;;
8086;SDS011;4086;54.412;9.980;2022-12-29T15:06:33;5.50;;;2.20;;
8086;SDS011;4086;54.412;9.980;2022-12-29T15:09:04;9.93;;;2.30;;
8086;SDS011;4086;54.412;9.980;2022-12-29T15:11:41;10.33;;;2.10;;
8086;SDS011;4086;54.412;9.980;2022-12-29T15:17:08;7.43;;;2.53;;
8086;SDS011;4086;54.412;9.980;2022-12-29T15:19:36;7.57;;;2.30;;
8086;SDS011;4086;54.412;9.980;2022-12-29T15:22:03;12.03;;;2.10;;
8086;SDS011;4086;54.412;9.980;2022-12-29T15:24:30;5.87;;;2.03;;
8086;SDS011;4086;54.412;9.980;2022-12-29T15:26:56;6.83;;;2.50;;
8086;SDS011;4086;54.412;9.980;2022-12-29T15:29:34;12.97;;;2.37;;
8086;SDS011;4086;54.412;9.980;2022-12-29T15:32:17;8.70;;;2.50;;
8086;SDS011;4086;54.412;9.980;2022-12-29T15:34:47;8.90;;;2.23;;
8086;SDS011;4086;54.412;9.980;2022-12-29T15:37:17;9.47;;;2.30;;
8086;SDS011;4086;54.412;9.980;2022-12-29T15:39:45;8.67;;;1.80;;
8086;SDS011;4086;54.412;9.980;2022-12-29T15:42:20;6.43;;;2.00;;